Time;durP1;ratioP1;P1;durP2;ratioP2;P2;SDS_P1;SDS_P2;PMS_P1;PMS_P2;Temp;Humidity;BMP_temperature;BMP_pressure;BME280_temperature;BME280_humidity;BME280_pressure;Samples;Min_cycle;Max_cycle;Signal;HPM_P1;HPM_P2
2023/08/12 00:01:05;;;;;;;8.52;4.43;;;;;;;15.85;100.00;98035.50;5026336;28;20037;-73
2023/08/12 00:03:31;;;;;;;6.10;4.30;;;;;;;15.87;100.00;98044.38;5009479;28;20461;-73
2023/08/12 00:06:00;;;;;;;8.77;4.38;;;;;;;15.87;100.00;98039.84;5056383;28;20036;-72
2023/08/12 00:08:26;;;;;;;7.65;4.15;;;;;;;15.87;100.00;98044.38;5045944;28;20055;-72
2023/08/12 00:10:51;;;;;;;6.32;4.10;;;;;;;15.86;100.00;98037.25;5046104;28;20029;-72
2023/08/12 00:13:17;;;;;;;6.75;4.28;;;;;;;15.81;100.00;98034.03;5047281;28;20077;-72
2023/08/12 00:15:43;;;;;;;15.15;4.30;;;;;;;15.83;100.00;98034.78;5029239;28;20384;-72
2023/08/12 00:18:09;;;;;;;7.22;4.18;;;;;;;15.82;100.00;98036.59;5045736;28;20037;-72
2023/08/12 00:20:34;;;;;;;11.68;4.70;;;;;;;15.75;100.00;98035.34;5045879;28;20025;-73
2023/08/12 00:23:00;;;;;;;9.65;4.95;;;;;;;15.72;100.00;98024.78;5028061;28;20025;-72
2023/08/12 00:25:26;;;;;;;5.95;4.40;;;;;;;15.79;100.00;98036.84;5038879;28;20029;-72
2023/08/12 00:27:52;;;;;;;5.57;4.10;;;;;;;15.83;100.00;98042.88;5042156;28;20026;-72
2023/08/12 00:30:18;;;;;;;5.28;3.80;;;;;;;15.84;100.00;98033.81;5009482;28;20049;-72
2023/08/12 00:32:44;;;;;;;6.93;3.92;;;;;;;15.79;100.00;98035.97;5026747;28;20485;-73
2023/08/12 00:35:09;;;;;;;6.10;3.97;;;;;;;15.73;100.00;98032.78;5025847;28;20033;-72
2023/08/12 00:37:35;;;;;;;6.72;4.40;;;;;;;15.69;100.00;98027.72;5009164;28;20034;-72
2023/08/12 00:40:00;;;;;;;11.45;4.10;;;;;;;15.68;100.00;98026.00;5009212;28;20025;-73
2023/08/12 00:42:26;;;;;;;8.05;4.07;;;;;;;15.65;100.00;98029.81;5025750;28;20507;-73
2023/08/12 00:44:51;;;;;;;8.45;4.32;;;;;;;15.60;100.00;98033.78;5012965;28;20064;-71
2023/08/12 00:47:17;;;;;;;12.60;4.55;;;;;;;15.49;100.00;98028.34;5046646;28;20154;-72
2023/08/12 00:49:45;;;;;;;6.80;4.20;;;;;;;15.57;100.00;98034.88;5045245;28;20036;-72
2023/08/12 00:52:14;;;;;;;6.55;3.67;;;;;;;15.57;100.00;98020.53;5045650;28;20070;-72
2023/08/12 00:54:39;;;;;;;7.63;3.97;;;;;;;15.51;100.00;98013.78;5061879;28;20472;-72
2023/08/12 00:57:06;;;;;;;11.15;3.55;;;;;;;15.53;100.00;98025.31;5028751;28;20037;-72
2023/08/12 00:59:32;;;;;;;5.88;3.65;;;;;;;15.55;100.00;98015.28;5045341;28;20416;-73
2023/08/12 01:01:58;;;;;;;6.53;4.18;;;;;;;15.55;100.00;98012.56;5028646;28;20033;-72
2023/08/12 01:04:23;;;;;;;11.63;3.53;;;;;;;15.45;100.00;98016.88;5046490;28;20035;-72
2023/08/12 01:06:49;;;;;;;9.48;3.80;;;;;;;15.42;100.00;98017.13;5026630;28;20500;-73
2023/08/12 01:09:14;;;;;;;7.80;4.05;;;;;;;15.40;100.00;98018.22;5029971;28;20037;-72
2023/08/12 01:12:03;;;;;;;6.88;4.00;;;;;;;15.33;100.00;98027.72;5028574;28;20416;-72
2023/08/12 01:14:44;;;;;;;6.28;3.80;;;;;;;15.27;100.00;98031.72;5012179;28;20033;-72
2023/08/12 01:17:11;;;;;;;5.30;3.80;;;;;;;15.25;100.00;98022.03;5028520;28;20488;-73
2023/08/12 01:19:39;;;;;;;9.00;4.13;;;;;;;15.18;100.00;98013.53;5028560;28;20040;-72
2023/08/12 01:22:08;;;;;;;5.13;3.92;;;;;;;15.23;100.00;98029.38;5045364;28;20476;-73
2023/08/12 01:24:43;;;;;;;6.35;4.55;;;;;;;15.14;100.00;98025.50;5031746;28;20102;-74
2023/08/12 01:27:11;;;;;;;7.38;5.13;;;;;;;15.11;100.00;98031.09;5048258;28;20021;-73
2023/08/12 01:29:44;;;;;;;11.13;5.18;;;;;;;15.06;100.00;98044.94;5027263;28;20045;-73
2023/08/12 01:32:32;;;;;;;8.77;6.63;;;;;;;15.03;100.00;98030.81;5028306;28;20037;-72
2023/08/12 01:35:09;;;;;;;6.45;3.97;;;;;;;14.95;100.00;98034.03;5029619;28;20550;-73
2023/08/12 01:37:36;;;;;;;6.15;4.22;;;;;;;14.96;100.00;98030.38;5028349;28;20032;-73
2023/08/12 01:40:05;;;;;;;6.70;4.07;;;;;;;14.92;100.00;98039.66;5007680;28;20030;-73
2023/08/12 01:42:33;;;;;;;7.97;3.90;;;;;;;14.93;100.00;98024.34;5012069;28;20055;-73
2023/08/12 01:44:59;;;;;;;5.55;4.10;;;;;;;14.97;100.00;98026.72;5028247;28;20041;-73
2023/08/12 01:47:25;;;;;;;5.35;3.88;;;;;;;14.92;100.00;98025.34;5028351;28;20581;-73
2023/08/12 01:49:50;;;;;;;5.70;4.30;;;;;;;14.90;100.00;98029.97;5027864;28;20033;-73
2023/08/12 01:52:15;;;;;;;12.10;4.88;;;;;;;14.86;100.00;98029.31;5027995;28;20029;-73
2023/08/12 01:54:41;;;;;;;6.22;4.07;;;;;;;14.75;100.00;98021.16;5029228;28;20555;-73
2023/08/12 01:57:08;;;;;;;8.05;4.85;;;;;;;14.67;100.00;98023.53;5028070;28;20037;-73
2023/08/12 01:59:36;;;;;;;8.55;4.38;;;;;;;14.70;100.00;98033.22;5027949;28;20067;-73
2023/08/12 02:02:02;;;;;;;5.55;3.97;;;;;;;14.71;100.00;98024.16;5018227;28;20159;-73
2023/08/12 02:04:27;;;;;;;9.05;4.90;;;;;;;14.73;100.00;98027.63;5047897;28;20158;-73
2023/08/12 02:06:54;;;;;;;8.63;4.63;;;;;;;14.76;100.00;98028.28;5047563;28;20115;-73
2023/08/12 02:09:19;;;;;;;4.60;4.10;;;;;;;14.75;100.00;98023.84;5039501;28;20029;-72
2023/08/12 02:11:45;;;;;;;9.32;4.43;;;;;;;14.76;100.00;98032.78;5047458;28;20035;-72
2023/08/12 02:14:11;;;;;;;16.92;4.40;;;;;;;14.76;100.00;98027.41;5019449;28;20503;-72
2023/08/12 02:16:36;;;;;;;12.30;4.00;;;;;;;14.75;100.00;98025.66;5027690;28;20081;-72
2023/08/12 02:19:02;;;;;;;5.30;4.13;;;;;;;14.63;100.00;98022.03;5010604;28;20037;-73
2023/08/12 02:21:27;;;;;;;5.50;4.28;;;;;;;14.56;100.00;98016.19;5028867;28;20022;-72
2023/08/12 02:23:53;;;;;;;5.57;4.30;;;;;;;14.60;100.00;98020.41;5044055;27;20053;-72
2023/08/12 02:26:18;;;;;;;6.88;4.10;;;;;;;14.65;100.00;98026.31;5011053;28;20030;-72
2023/08/12 02:28:44;;;;;;;15.05;4.90;;;;;;;14.62;100.00;98025.66;5027526;28;20432;-72
2023/08/12 02:31:09;;;;;;;12.18;5.10;;;;;;;14.59;100.00;98032.16;5027597;28;20188;-72
2023/08/12 02:33:35;;;;;;;7.45;4.25;;;;;;;14.59;100.00;98034.84;5033858;28;20479;-72
2023/08/12 02:36:00;;;;;;;5.22;4.25;;;;;;;14.57;100.00;98034.09;5030588;28;20043;-73
2023/08/12 02:38:26;;;;;;;11.63;4.80;;;;;;;14.55;100.00;98041.38;5047338;28;20045;-72
2023/08/12 02:40:51;;;;;;;6.57;4.50;;;;;;;14.52;100.00;98030.84;5030551;28;20453;-72
2023/08/12 02:43:17;;;;;;;11.75;4.85;;;;;;;14.52;100.00;98035.34;5047228;28;20065;-72
2023/08/12 02:45:43;;;;;;;5.35;4.47;;;;;;;14.41;100.00;98030.75;5047134;28;20028;-72
2023/08/12 02:48:12;;;;;;;8.88;4.43;;;;;;;14.41;100.00;98033.44;5046974;28;20385;-72
2023/08/12 02:50:38;;;;;;;8.40;4.28;;;;;;;14.35;100.00;98031.16;5047018;28;20025;-72
2023/08/12 02:53:04;;;;;;;8.90;4.45;;;;;;;14.40;100.00;98031.69;5046885;28;20317;-72
2023/08/12 02:55:31;;;;;;;10.10;5.15;;;;;;;14.29;100.00;98034.25;5046970;28;20025;-73
2023/08/12 02:57:57;;;;;;;6.35;4.50;;;;;;;14.37;100.00;98034.59;5047041;28;20400;-73
2023/08/12 03:00:23;;;;;;;9.10;4.70;;;;;;;14.37;100.00;98037.28;5046915;28;20029;-72
2023/08/12 03:02:48;;;;;;;8.90;5.05;;;;;;;14.29;100.00;98036.94;5048077;28;20109;-73
2023/08/12 03:05:14;;;;;;;5.60;4.15;;;;;;;14.27;100.00;98035.31;5046527;28;20452;-71
2023/08/12 03:07:39;;;;;;;15.20;4.80;;;;;;;14.23;100.00;98033.81;5048097;28;20503;-72
2023/08/12 03:10:05;;;;;;;8.43;5.00;;;;;;;14.28;100.00;98042.41;5046730;28;20028;-72
2023/08/12 03:12:31;;;;;;;9.20;4.50;;;;;;;14.29;100.00;98036.94;5046747;28;20036;-74
2023/08/12 03:14:56;;;;;;;8.20;5.00;;;;;;;14.28;100.00;98035.22;5046792;28;20033;-73
2023/08/12 03:17:22;;;;;;;8.20;4.60;;;;;;;14.26;100.00;98045.22;5039387;28;20030;-73
2023/08/12 03:19:48;;;;;;;10.18;4.57;;;;;;;14.27;100.00;98041.59;5026739;28;20033;-72
2023/08/12 03:22:14;;;;;;;13.65;4.90;;;;;;;14.31;100.00;98043.06;5026729;28;20044;-73
2023/08/12 03:24:39;;;;;;;6.43;4.35;;;;;;;14.20;100.00;98042.97;5026951;28;20473;-73
2023/08/12 03:27:05;;;;;;;8.35;4.95;;;;;;;14.18;100.00;98047.56;5026558;28;20030;-73
2023/08/12 03:29:30;;;;;;;30.80;5.28;;;;;;;14.15;100.00;98050.47;5025566;28;20496;-73
2023/08/12 03:31:56;;;;;;;11.32;5.07;;;;;;;14.19;100.00;98049.28;5026470;28;20033;-73
2023/08/12 03:34:21;;;;;;;18.27;5.03;;;;;;;14.11;100.00;98036.38;5026350;28;20048;-73
2023/08/12 03:36:48;;;;;;;19.95;5.70;;;;;;;14.16;100.00;98054.88;5027779;28;20070;-72
2023/08/12 03:39:14;;;;;;;24.63;5.03;;;;;;;14.10;100.00;98049.94;5034847;28;20036;-72
2023/08/12 03:41:39;;;;;;;12.15;4.40;;;;;;;14.17;100.00;98056.63;5031838;28;20145;-73
2023/08/12 03:44:05;;;;;;;22.25;5.13;;;;;;;14.25;100.00;98054.25;5026402;28;20166;-73
2023/08/12 03:46:31;;;;;;;21.15;5.85;;;;;;;14.29;100.00;98052.22;5026345;28;20121;-73
2023/08/12 03:48:57;;;;;;;8.35;5.18;;;;;;;14.30;100.00;98062.91;5029349;28;20104;-73
2023/08/12 03:51:22;;;;;;;18.17;5.32;;;;;;;14.26;100.00;98061.38;5029457;28;20120;-73
2023/08/12 03:53:48;;;;;;;7.15;5.47;;;;;;;14.27;100.00;98056.84;5046361;28;20029;-73
2023/08/12 03:56:15;;;;;;;11.48;6.00;;;;;;;14.21;100.00;98052.75;5045944;28;20029;-72
2023/08/12 03:58:41;;;;;;;17.73;6.15;;;;;;;14.28;100.00;98070.19;5046671;28;20036;-72
2023/08/12 04:01:07;;;;;;;13.23;6.05;;;;;;;14.32;100.00;98066.34;5047509;28;20040;-73
2023/08/12 04:03:32;;;;;;;16.88;5.40;;;;;;;14.31;100.00;98059.22;5046035;28;20017;-73
2023/08/12 04:05:58;;;;;;;61.67;7.72;;;;;;;14.32;100.00;98070.84;5029379;28;20041;-73
2023/08/12 04:08:24;;;;;;;27.98;5.53;;;;;;;14.31;100.00;98063.72;5062452;28;20017;-73
2023/08/12 04:10:50;;;;;;;17.35;5.00;;;;;;;14.29;100.00;98068.38;5046024;28;20045;-72
2023/08/12 04:13:16;;;;;;;24.13;5.47;;;;;;;14.32;100.00;98066.34;5038100;28;20025;-73
2023/08/12 04:15:42;;;;;;;10.75;5.00;;;;;;;14.65;100.00;98079.31;5026104;28;20025;-73
2023/08/12 04:18:07;;;;;;;15.70;5.07;;;;;;;15.30;100.00;98071.06;5009519;28;20120;-72
2023/08/12 04:20:33;;;;;;;13.85;4.50;;;;;;;15.96;100.00;98059.88;5027265;28;20029;-72
2023/08/12 04:22:59;;;;;;;14.07;4.78;;;;;;;15.94;100.00;98051.00;5026117;28;20030;-72
2023/08/12 04:25:25;;;;;;;17.75;5.00;;;;;;;15.90;100.00;98055.81;5009452;28;20037;-73
2023/08/12 04:27:50;;;;;;;19.92;6.90;;;;;;;15.72;100.00;98055.31;5027157;28;20108;-73
2023/08/12 04:30:17;;;;;;;14.40;4.95;;;;;;;15.64;100.00;98068.53;5042306;28;20491;-72
2023/08/12 04:32:43;;;;;;;9.35;5.10;;;;;;;15.42;100.00;98059.38;5045471;28;20044;-73
2023/08/12 04:35:09;;;;;;;26.67;5.07;;;;;;;15.18;100.00;98056.66;5045770;28;20111;-73
2023/08/12 04:37:35;;;;;;;20.30;5.85;;;;;;;15.23;100.00;98070.66;5045882;28;20017;-72
2023/08/12 04:40:01;;;;;;;31.05;7.55;;;;;;;15.20;100.00;98076.25;5028957;28;20093;-73
2023/08/12 04:42:26;;;;;;;21.08;5.90;;;;;;;15.15;100.00;98070.34;5048381;28;20037;-72
2023/08/12 04:44:52;;;;;;;22.33;6.47;;;;;;;15.25;100.00;98079.50;5033295;28;20377;-73
2023/08/12 04:47:18;;;;;;;10.15;5.35;;;;;;;15.31;100.00;98083.59;5012306;28;20226;-75
2023/08/12 04:49:43;;;;;;;6.97;5.15;;;;;;;15.24;100.00;98077.78;5029199;28;20033;-73
2023/08/12 04:52:09;;;;;;;11.43;5.22;;;;;;;15.29;100.00;98072.91;5029046;28;20022;-73
2023/08/12 04:54:34;;;;;;;8.02;5.35;;;;;;;15.39;100.00;98081.19;5028834;28;20079;-73
2023/08/12 04:57:00;;;;;;;9.77;5.60;;;;;;;15.42;100.00;98075.56;5012442;28;20033;-73
2023/08/12 04:59:25;;;;;;;19.95;6.65;;;;;;;15.48;100.00;98073.31;5012647;28;20025;-73
2023/08/12 05:01:51;;;;;;;30.50;8.13;;;;;;;15.58;100.00;98076.19;5047895;28;20377;-73
2023/08/12 05:04:16;;;;;;;13.00;7.10;;;;;;;15.69;100.00;98077.13;5049953;28;20104;-73
2023/08/12 05:06:42;;;;;;;19.60;5.85;;;;;;;15.83;100.00;98070.72;5048571;28;20032;-73
2023/08/12 05:09:08;;;;;;;15.35;4.85;;;;;;;15.88;100.00;98073.06;5048666;28;20028;-73
2023/08/12 05:11:33;;;;;;;14.55;5.13;;;;;;;16.02;100.00;98081.00;5048386;28;20032;-73
2023/08/12 05:13:59;;;;;;;14.80;5.43;;;;;;;16.15;100.00;98076.41;5042205;28;20030;-72
2023/08/12 05:16:24;;;;;;;11.20;5.55;;;;;;;16.19;100.00;98077.88;5039643;28;20020;-73
2023/08/12 05:18:50;;;;;;;12.73;5.93;;;;;;;16.30;100.00;98075.22;5029817;28;20133;-73
2023/08/12 05:21:16;;;;;;;7.07;5.15;;;;;;;16.44;100.00;98061.50;5020333;28;20465;-73
2023/08/12 05:23:41;;;;;;;20.83;6.80;;;;;;;16.58;100.00;98069.44;5029696;28;20032;-73
2023/08/12 05:26:07;;;;;;;18.95;7.00;;;;;;;16.69;100.00;98069.47;5012312;28;20461;-73
2023/08/12 05:28:32;;;;;;;17.45;10.27;;;;;;;16.91;100.00;98059.66;5012084;28;20128;-74
2023/08/12 05:30:58;;;;;;;25.98;12.20;;;;;;;17.13;100.00;98065.97;5028174;28;20036;-73
2023/08/12 05:33:24;;;;;;;14.25;6.10;;;;;;;17.43;100.00;98051.78;5028500;28;20030;-73
2023/08/12 05:35:50;;;;;;;8.13;5.30;;;;;;;18.64;100.00;98060.50;5028233;28;20037;-73
2023/08/12 05:38:15;;;;;;;16.77;8.65;;;;;;;20.54;100.00;98033.25;5028425;28;20021;-72
2023/08/12 05:40:41;;;;;;;20.02;10.32;;;;;;;22.17;100.00;98031.72;5028711;28;20457;-71
2023/08/12 05:43:07;;;;;;;21.13;8.95;;;;;;;22.98;100.00;98023.22;5028145;28;20481;-72
2023/08/12 05:45:32;;;;;;;14.73;8.20;;;;;;;23.74;100.00;98017.84;5029278;28;20037;-72
2023/08/12 05:47:58;;;;;;;9.27;4.90;;;;;;;24.26;100.00;98013.03;5011721;28;20029;-73
2023/08/12 05:50:23;;;;;;;9.10;4.45;;;;;;;25.00;100.00;98007.38;5027989;28;20033;-74
2023/08/12 05:52:49;;;;;;;18.45;5.20;;;;;;;25.79;93.42;97995.47;5010741;28;20500;-74
2023/08/12 05:55:14;;;;;;;9.45;4.40;;;;;;;26.24;90.49;97997.47;5029007;28;20029;-74
2023/08/12 05:57:40;;;;;;;13.73;4.05;;;;;;;26.49;86.54;97992.66;5027710;28;20068;-74
2023/08/12 06:00:06;;;;;;;7.47;3.40;;;;;;;25.29;92.24;97998.56;5033368;28;20029;-73
2023/08/12 06:02:31;;;;;;;14.45;3.92;;;;;;;26.65;86.35;97989.75;5047511;28;20345;-73
2023/08/12 06:04:57;;;;;;;20.63;5.03;;;;;;;27.10;82.96;97986.94;5048776;28;20089;-74
2023/08/12 06:07:23;;;;;;;9.13;4.40;;;;;;;26.02;88.09;97995.53;5030819;28;20131;-73
2023/08/12 06:09:50;;;;;;;10.65;6.10;;;;;;;25.77;88.99;97997.56;5048784;28;20020;-73
2023/08/12 06:12:15;;;;;;;5.30;3.83;;;;;;;25.55;90.76;97992.88;5030674;28;20036;-74
2023/08/12 06:14:41;;;;;;;11.43;4.45;;;;;;;25.03;95.20;98004.31;5047494;28;20030;-74
2023/08/12 06:17:06;;;;;;;7.68;4.63;;;;;;;25.79;91.98;97998.22;5047141;28;20112;-74
2023/08/12 06:19:32;;;;;;;13.25;3.33;;;;;;;26.90;81.56;97986.66;5030675;28;20515;-73
2023/08/12 06:21:58;;;;;;;5.13;3.50;;;;;;;26.52;83.15;97986.81;5047242;28;20178;-75
2023/08/12 06:24:23;;;;;;;9.77;3.72;;;;;;;26.95;78.81;97990.72;5043865;28;20028;-73
2023/08/12 06:26:49;;;;;;;13.27;5.68;;;;;;;27.47;75.42;97977.81;5046667;28;20180;-73
2023/08/12 06:29:15;;;;;;;52.50;6.95;;;;;;;28.74;64.51;97972.50;5028389;28;20413;-73
2023/08/12 06:31:40;;;;;;;22.25;10.32;;;;;;;27.95;69.21;97970.81;5027118;28;20041;-73
2023/08/12 06:34:06;;;;;;;6.95;3.80;;;;;;;28.82;62.42;97968.78;5010583;28;20167;-75
2023/08/12 06:36:31;;;;;;;10.52;4.45;;;;;;;28.51;61.29;97958.94;5027147;28;20048;-73
2023/08/12 06:38:57;;;;;;;20.30;5.68;;;;;;;29.13;60.88;97963.72;5010811;28;20025;-73
2023/08/12 06:41:22;;;;;;;33.33;5.60;;;;;;;30.15;54.49;97956.38;5026933;28;20025;-73
2023/08/12 06:43:48;;;;;;;24.98;5.57;;;;;;;31.14;50.94;97946.28;5027117;28;20104;-73
2023/08/12 06:46:13;;;;;;;13.18;4.90;;;;;;;30.53;50.52;97945.66;5026998;28;20021;-73
2023/08/12 06:48:39;;;;;;;63.58;10.50;;;;;;;30.77;51.51;97949.69;5026935;28;20392;-74
2023/08/12 06:51:10;;;;;;;26.50;6.05;;;;;;;30.89;51.04;97947.97;5028058;28;20412;-73
2023/08/12 06:53:36;;;;;;;40.40;5.37;;;;;;;30.36;51.29;97947.97;5026866;28;20381;-73
2023/08/12 06:56:02;;;;;;;32.38;3.92;;;;;;;30.07;52.26;97943.63;5026899;28;20021;-73
2023/08/12 06:58:27;;;;;;;63.85;5.85;;;;;;;31.28;49.61;97942.47;5026825;28;20404;-73
2023/08/12 07:00:53;;;;;;;10.80;4.38;;;;;;;31.69;47.47;97936.59;5028960;28;20084;-73
2023/08/12 07:03:19;;;;;;;20.88;3.80;;;;;;;31.85;46.47;97929.72;5046630;28;20013;-73
2023/08/12 07:05:44;;;;;;;54.45;5.20;;;;;;;31.42;47.33;97937.72;5033256;28;20140;-73
2023/08/12 07:08:10;;;;;;;4.72;3.35;;;;;;;29.98;50.72;97935.75;5026650;28;20056;-73
2023/08/12 07:10:40;;;;;;;45.42;5.18;;;;;;;30.40;51.35;97943.72;5010296;28;20408;-73
2023/08/12 07:13:05;;;;;;;11.65;3.47;;;;;;;30.30;50.99;97948.75;5026728;28;20026;-72
2023/08/12 07:15:31;;;;;;;14.52;3.55;;;;;;;31.15;49.17;97942.47;5026553;28;20032;-72
2023/08/12 07:17:57;;;;;;;5.07;3.00;;;;;;;32.07;45.30;97918.13;5010070;28;20521;-72
2023/08/12 07:20:25;;;;;;;3.67;2.95;;;;;;;30.27;49.06;97931.78;5028192;28;20484;-73
2023/08/12 07:22:51;;;;;;;25.80;4.07;;;;;;;30.77;50.12;97946.94;5046280;28;20063;-73
2023/08/12 07:25:16;;;;;;;6.65;2.70;;;;;;;30.26;49.24;97930.94;5062913;28;20084;-73
2023/08/12 07:27:42;;;;;;;28.70;4.03;;;;;;;32.11;45.56;97924.94;5046265;28;20025;-73
2023/08/12 07:30:08;;;;;;;72.20;6.50;;;;;;;31.42;45.63;97927.50;5026382;28;20045;-73
2023/08/12 07:32:36;;;;;;;25.55;4.20;;;;;;;31.76;45.34;97925.50;5020856;28;20040;-73
2023/08/12 07:35:03;;;;;;;11.02;3.40;;;;;;;32.45;43.49;97912.56;5046135;28;20080;-72
2023/08/12 07:37:29;;;;;;;6.90;2.83;;;;;;;33.20;41.74;97916.19;5062737;28;20053;-73
2023/08/12 07:39:54;;;;;;;6.30;3.05;;;;;;;34.08;40.25;97905.53;5046174;28;20132;-73
2023/08/12 07:42:20;;;;;;;9.23;3.75;;;;;;;32.50;41.62;97907.19;5045885;28;20025;-73
2023/08/12 07:44:45;;;;;;;3.70;2.95;;;;;;;31.06;44.86;97916.13;5047520;28;20396;-72
2023/08/12 07:47:11;;;;;;;15.52;3.00;;;;;;;32.71;41.76;97905.97;5029667;28;20554;-73
2023/08/12 07:49:36;;;;;;;12.90;2.90;;;;;;;32.82;41.14;97904.41;5045990;28;20445;-72
2023/08/12 07:52:02;;;;;;;3.72;2.80;;;;;;;31.38;43.78;97904.13;5046062;28;20033;-72
2023/08/12 07:54:28;;;;;;;18.50;3.03;;;;;;;32.99;41.05;97906.34;5045849;28;20400;-72
2023/08/12 07:56:53;;;;;;;4.20;2.38;;;;;;;33.68;38.80;97883.88;5037606;28;20029;-72
2023/08/12 07:59:19;;;;;;;6.90;2.50;;;;;;;35.04;37.24;97883.06;5046198;28;20196;-72
2023/08/12 08:01:45;;;;;;;2.85;2.42;;;;;;;35.86;34.71;97873.53;5046143;28;20029;-72
2023/08/12 08:04:11;;;;;;;7.45;3.13;;;;;;;34.65;36.17;97879.03;5036117;28;20404;-72
2023/08/12 08:06:36;;;;;;;12.75;3.00;;;;;;;34.23;36.47;97878.22;5027177;28;20491;-71
2023/08/12 08:09:03;;;;;;;3.88;2.42;;;;;;;35.01;34.40;97878.00;5026192;28;20420;-72
2023/08/12 08:11:30;;;;;;;2.42;2.22;;;;;;;36.04;32.93;97861.34;5031213;28;20039;-72
2023/08/12 08:13:55;;;;;;;3.67;2.10;;;;;;;36.40;31.67;97861.78;5046834;28;20078;-72
2023/08/12 08:16:22;;;;;;;4.30;2.28;;;;;;;36.88;31.28;97861.22;5047355;28;20090;-72
2023/08/12 08:18:47;;;;;;;12.73;3.33;;;;;;;37.42;31.16;97856.75;5049285;28;20029;-73
2023/08/12 08:21:13;;;;;;;6.22;2.75;;;;;;;38.27;30.66;97858.91;5048491;28;20507;-73
2023/08/12 08:23:40;;;;;;;7.22;2.30;;;;;;;37.08;29.97;97859.88;5065811;28;20029;-73
2023/08/12 08:26:06;;;;;;;6.18;2.30;;;;;;;37.05;30.50;97854.78;5049193;28;20431;-72
2023/08/12 08:28:32;;;;;;;24.08;3.50;;;;;;;38.05;29.87;97846.97;5066050;28;20066;-72
2023/08/12 08:30:58;;;;;;;49.83;3.90;;;;;;;37.80;30.36;97861.47;5049086;28;20403;-72
2023/08/12 08:33:25;;;;;;;23.23;3.05;;;;;;;36.58;31.54;97855.13;5065974;28;20033;-73
2023/08/12 08:35:50;;;;;;;4.00;2.17;;;;;;;37.04;30.99;97858.72;5049170;28;20131;-73
2023/08/12 08:38:16;;;;;;;6.40;2.35;;;;;;;37.50;31.14;97855.50;5049255;28;20096;-73
2023/08/12 08:40:42;;;;;;;2.85;2.20;;;;;;;38.07;30.21;97844.75;5031869;28;20041;-73
2023/08/12 08:43:08;;;;;;;11.13;2.70;;;;;;;37.27;31.99;97850.09;5037392;28;20028;-72
2023/08/12 08:45:34;;;;;;;4.25;3.15;;;;;;;37.69;31.55;97842.88;5029269;28;20037;-72
2023/08/12 08:48:01;;;;;;;7.47;2.45;;;;;;;36.88;31.45;97847.28;5012335;28;20046;-72
2023/08/12 08:50:28;;;;;;;5.60;2.20;;;;;;;34.70;33.83;97856.94;5012550;28;20532;-72
2023/08/12 08:52:56;;;;;;;4.30;2.03;;;;;;;34.99;34.62;97860.69;5028857;28;20040;-72
2023/08/12 08:55:22;;;;;;;5.13;2.50;;;;;;;34.55;34.57;97857.38;5045593;27;20029;-72
2023/08/12 08:57:47;;;;;;;2.97;2.40;;;;;;;35.70;33.20;97841.75;5028799;28;20481;-73
2023/08/12 09:00:14;;;;;;;8.60;2.53;;;;;;;36.20;32.83;97841.06;5030098;28;20033;-72
2023/08/12 09:02:40;;;;;;;4.15;2.17;;;;;;;35.58;33.52;97837.31;5035298;28;20024;-72
2023/08/12 09:05:06;;;;;;;5.70;2.80;;;;;;;35.99;33.37;97833.38;5048388;28;20123;-72
2023/08/12 09:07:32;;;;;;;3.58;2.42;;;;;;;36.00;34.13;97835.91;5041924;28;20044;-72
2023/08/12 09:09:58;;;;;;;5.70;2.58;;;;;;;36.79;33.04;97840.41;5028408;28;20465;-73
2023/08/12 09:12:24;;;;;;;4.30;2.35;;;;;;;34.57;34.61;97830.19;5028816;28;20386;-72
2023/08/12 09:14:50;;;;;;;3.50;2.40;;;;;;;35.20;34.86;97835.06;5028590;28;20404;-72
2023/08/12 09:17:16;;;;;;;9.90;2.80;;;;;;;35.73;33.98;97826.47;5028577;28;20041;-72
2023/08/12 09:19:41;;;;;;;3.72;2.30;;;;;;;35.94;33.57;97824.91;5027890;28;20025;-72
2023/08/12 09:22:09;;;;;;;3.20;2.10;;;;;;;35.97;33.22;97827.19;5049830;28;20411;-73
2023/08/12 09:24:34;;;;;;;3.50;2.17;;;;;;;32.61;37.42;97836.34;5049420;28;20023;-71
2023/08/12 09:27:00;;;;;;;3.65;2.13;;;;;;;33.96;36.22;97838.00;5047447;28;20037;-72
2023/08/12 09:29:31;;;;;;;17.27;2.40;;;;;;;35.12;34.35;97819.59;5047857;28;20127;-72
2023/08/12 09:32:07;;;;;;;1.85;1.75;;;;;;;36.11;33.19;97811.91;5048157;28;20036;-73
2023/08/12 09:34:32;;;;;;;33.63;4.25;;;;;;;37.17;32.07;97810.88;5019151;28;20029;-72
2023/08/12 09:36:58;;;;;;;7.35;2.50;;;;;;;37.26;31.61;97800.94;5028492;28;20145;-72
2023/08/12 09:39:24;;;;;;;4.18;2.20;;;;;;;36.53;32.13;97809.59;5028267;28;20784;-71
2023/08/12 09:41:50;;;;;;;4.60;1.90;;;;;;;36.56;31.22;97798.78;5045824;28;20443;-73
2023/08/12 09:44:15;;;;;;;2.30;1.95;;;;;;;36.42;32.22;97794.63;5047868;28;20441;-72
2023/08/12 09:46:41;;;;;;;10.23;2.25;;;;;;;36.58;32.00;97787.38;5047995;28;20029;-73
2023/08/12 09:49:07;;;;;;;2.85;2.00;;;;;;;37.10;31.76;97788.72;5063862;28;20061;-72
2023/08/12 09:51:36;;;;;;;4.45;2.25;;;;;;;35.72;32.99;97792.19;5023618;28;20060;-71
2023/08/12 09:54:02;;;;;;;2.10;1.88;;;;;;;35.76;32.22;97778.63;5047858;28;20496;-71
2023/08/12 09:56:33;;;;;;;4.18;1.90;;;;;;;37.18;31.03;97779.09;5047806;28;20025;-71
2023/08/12 09:58:59;;;;;;;21.13;4.20;;;;;;;38.22;30.23;97786.19;5047655;28;20025;-71
2023/08/12 10:01:26;;;;;;;2.85;1.90;;;;;;;37.47;30.42;97775.03;5030998;28;20029;-72
2023/08/12 10:03:57;;;;;;;3.97;2.20;;;;;;;36.02;32.06;97777.16;5031247;28;20040;-71
2023/08/12 10:06:22;;;;;;;;;;;;;;;37.09;32.16;97783.41;5047915;28;20025;-71
2023/08/12 10:08:49;;;;;;;17.30;2.83;;;;;;;38.15;30.74;97779.16;5064532;28;19972;-71
2023/08/12 10:11:15;;;;;;;3.20;2.00;;;;;;;35.88;31.13;97765.47;5045322;28;20037;-71
2023/08/12 10:13:41;;;;;;;12.63;3.15;;;;;;;35.96;32.31;97770.66;5027724;28;20030;-70
2023/08/12 10:16:07;;;;;;;4.88;2.38;;;;;;;36.50;30.16;97763.53;5027550;28;20032;-71
2023/08/12 10:18:33;;;;;;;4.78;1.85;;;;;;;36.37;29.77;97755.50;5028870;28;20037;-71
2023/08/12 10:20:59;;;;;;;4.28;1.92;;;;;;;37.60;29.06;97752.25;5044063;28;20029;-71
2023/08/12 10:23:25;;;;;;;7.55;2.00;;;;;;;39.21;27.13;97743.56;5031525;28;20100;-71
2023/08/12 10:25:54;;;;;;;5.63;2.38;;;;;;;39.84;27.05;97754.47;5029121;28;20065;-71
2023/08/12 10:28:20;;;;;;;3.05;2.00;;;;;;;39.41;26.23;97750.09;5028656;28;20050;-72
2023/08/12 10:30:46;;;;;;;3.17;1.80;;;;;;;39.65;26.49;97742.06;5027365;28;20119;-70
2023/08/12 10:33:14;;;;;;;2.88;1.95;;;;;;;41.71;24.89;97740.22;5027218;28;20045;-71
2023/08/12 10:35:45;;;;;;;3.38;2.20;;;;;;;42.26;24.83;97741.84;5027369;28;20029;-72
2023/08/12 10:38:17;;;;;;;3.78;1.73;;;;;;;41.72;24.89;97736.25;5010712;28;20029;-73
2023/08/12 10:40:43;;;;;;;1.70;1.60;;;;;;;42.10;24.34;97732.66;5027083;28;20037;-73
2023/08/12 10:43:08;;;;;;;3.78;2.20;;;;;;;41.46;25.56;97746.81;5007967;28;20026;-71
2023/08/12 10:45:47;;;;;;;2.33;2.00;;;;;;;40.01;26.70;97729.84;5027346;28;20025;-72
2023/08/12 10:48:21;;;;;;;5.30;2.20;;;;;;;40.45;26.95;97734.91;5028252;28;20035;-72
2023/08/12 10:50:55;;;;;;;5.57;2.30;;;;;;;41.55;25.73;97730.16;5013506;28;20065;-72
2023/08/12 10:53:33;;;;;;;2.78;1.90;;;;;;;41.64;24.72;97723.66;5046915;28;20052;-72
2023/08/12 10:56:04;;;;;;;2.75;2.53;;;;;;;41.27;25.99;97722.41;5047205;28;20060;-72
2023/08/12 10:58:41;;;;;;;;;;;;;;;39.58;26.94;97713.47;5047293;28;20021;-72
2023/08/12 11:01:13;;;;;;;4.07;2.45;;;;;;;38.54;28.42;97727.47;5063579;28;20040;-72
2023/08/12 11:03:42;;;;;;;6.15;2.42;;;;;;;39.42;27.77;97720.13;5042959;28;20021;-72
2023/08/12 11:06:10;;;;;;;3.08;1.83;;;;;;;40.94;25.63;97716.38;5010517;28;20056;-72
2023/08/12 11:08:35;;;;;;;4.47;2.13;;;;;;;42.60;24.62;97719.34;5028152;28;20029;-72
2023/08/12 11:11:02;;;;;;;9.95;2.10;;;;;;;43.15;24.33;97712.28;5028209;28;20033;-72
2023/08/12 11:13:28;;;;;;;4.93;1.70;;;;;;;42.37;24.47;97708.81;5026682;28;20473;-72
2023/08/12 11:16:06;;;;;;;2.42;1.90;;;;;;;43.33;23.96;97705.00;5026887;28;20032;-72
2023/08/12 11:18:31;;;;;;;4.90;2.00;;;;;;;42.35;24.57;97706.31;5026718;28;20025;-71
2023/08/12 11:20:57;;;;;;;2.38;2.05;;;;;;;42.67;24.23;97711.41;5026687;28;20123;-72
2023/08/12 11:23:23;;;;;;;1.73;1.60;;;;;;;42.45;24.43;97696.94;5027630;28;20097;-71